createdAt,value
2023-05-09T00:01:06.586Z,99589.25
2023-05-09T00:03:33.360Z,99586.36
2023-05-09T00:06:00.062Z,99584.92
2023-05-09T00:08:26.829Z,99583.08
2023-05-09T00:10:53.823Z,99576.83
2023-05-09T00:13:20.974Z,99575.73
2023-05-09T00:15:48.374Z,99578.78
2023-05-09T00:18:15.483Z,99581.14
2023-05-09T00:20:42.619Z,99573.44
2023-05-09T00:23:09.523Z,99572.60
2023-05-09T00:25:36.520Z,99562.39
2023-05-09T00:28:03.349Z,99570.31
2023-05-09T00:30:30.910Z,99570.38
2023-05-09T00:32:57.889Z,99566.21
2023-05-09T00:35:24.745Z,99563.25
2023-05-09T00:37:51.514Z,99561.91
2023-05-09T00:40:18.371Z,99559.54
2023-05-09T00:42:45.706Z,99557.48
2023-05-09T00:45:12.760Z,99556.58
2023-05-09T00:47:39.962Z,99554.98
2023-05-09T00:50:07.494Z,99555.52
2023-05-09T00:52:34.910Z,99553.80
2023-05-09T00:55:03.010Z,99554.98
2023-05-09T00:57:29.754Z,99555.92
2023-05-09T00:59:56.638Z,99554.09
2023-05-09T01:02:23.987Z,99553.44
2023-05-09T01:04:51.285Z,99551.89
2023-05-09T01:07:36.843Z,99551.20
2023-05-09T01:10:21.541Z,99549.89
2023-05-09T01:13:13.434Z,99545.88
2023-05-09T01:16:11.947Z,99549.38
2023-05-09T01:18:45.421Z,99549.27
2023-05-09T01:21:17.000Z,99544.68
2023-05-09T01:23:44.313Z,99543.20
2023-05-09T01:26:19.845Z,99541.02
2023-05-09T01:29:17.442Z,99540.84
2023-05-09T01:31:46.768Z,99542.95
2023-05-09T01:34:16.879Z,99544.79
2023-05-09T01:36:44.334Z,99541.63
2023-05-09T01:39:13.450Z,99537.46
2023-05-09T01:41:40.637Z,99534.95
2023-05-09T01:44:11.702Z,99535.59
2023-05-09T01:46:39.937Z,99536.91
2023-05-09T01:49:09.504Z,99534.80
2023-05-09T01:51:39.897Z,99536.99
2023-05-09T01:54:08.207Z,99536.71
2023-05-09T01:56:38.259Z,99538.75
2023-05-09T01:59:07.660Z,99533.59
2023-05-09T02:01:35.917Z,99535.38
2023-05-09T02:04:04.609Z,99528.91
2023-05-09T02:06:32.643Z,99531.67
2023-05-09T02:08:59.562Z,99526.43
2023-05-09T02:11:26.399Z,99524.64
2023-05-09T02:13:53.243Z,99521.35
2023-05-09T02:16:21.198Z,99519.75
2023-05-09T02:18:48.727Z,99515.27
2023-05-09T02:21:15.664Z,99508.65
2023-05-09T02:23:42.629Z,99508.55
2023-05-09T02:26:09.397Z,99509.73
2023-05-09T02:28:37.883Z,99510.13
2023-05-09T02:31:07.536Z,99515.23
2023-05-09T02:33:37.482Z,99510.29
2023-05-09T02:36:06.128Z,99514.15
2023-05-09T02:38:33.877Z,99513.31
2023-05-09T02:41:02.482Z,99513.55
2023-05-09T02:43:29.231Z,99511.91
2023-05-09T02:45:56.033Z,99513.55
2023-05-09T02:48:23.410Z,99511.70
2023-05-09T02:50:50.214Z,99512.09
2023-05-09T02:53:17.009Z,99511.19
2023-05-09T02:55:43.934Z,99513.09
2023-05-09T02:58:14.842Z,99512.48
2023-05-09T03:00:43.249Z,99508.81
2023-05-09T03:03:10.999Z,99512.77
2023-05-09T03:05:37.915Z,99516.37
2023-05-09T03:08:05.195Z,99519.79
2023-05-09T03:10:32.778Z,99518.05
2023-05-09T03:12:59.596Z,99515.33
2023-05-09T03:15:27.437Z,99518.14
2023-05-09T03:17:54.657Z,99519.23
2023-05-09T03:20:21.934Z,99516.07
2023-05-09T03:22:49.613Z,99516.67
2023-05-09T03:25:17.057Z,99521.48
2023-05-09T03:27:44.990Z,99522.16
2023-05-09T03:30:14.585Z,99522.08
2023-05-09T03:32:42.463Z,99521.23
2023-05-09T03:35:09.315Z,99522.64
2023-05-09T03:37:36.181Z,99514.02
2023-05-09T03:40:04.037Z,99522.44
2023-05-09T03:42:32.296Z,99522.85
2023-05-09T03:45:00.591Z,99517.04
2023-05-09T03:47:28.913Z,99516.90
2023-05-09T03:49:56.729Z,99516.92
2023-05-09T03:52:24.108Z,99518.56
2023-05-09T03:54:51.033Z,99516.13
2023-05-09T03:57:17.894Z,99516.86
2023-05-09T03:59:45.109Z,99518.60
2023-05-09T04:02:14.644Z,99516.91
2023-05-09T04:04:41.591Z,99516.95
2023-05-09T04:07:09.198Z,99514.98
2023-05-09T04:09:36.464Z,99517.34
2023-05-09T04:12:03.384Z,99510.85
2023-05-09T04:14:30.797Z,99505.90
2023-05-09T04:16:57.842Z,99509.15
2023-05-09T04:19:25.852Z,99510.15
2023-05-09T04:21:53.616Z,99511.74
2023-05-09T04:24:20.759Z,99510.98
2023-05-09T04:26:48.522Z,99507.97
2023-05-09T04:29:18.284Z,99508.48
2023-05-09T04:31:49.507Z,99509.52
2023-05-09T04:34:16.663Z,99509.23
2023-05-09T04:36:44.981Z,99508.96
2023-05-09T04:39:12.965Z,99504.63
2023-05-09T04:41:44.615Z,99496.73
2023-05-09T04:44:13.974Z,99496.89
2023-05-09T04:46:40.930Z,99497.80
2023-05-09T04:49:07.752Z,99498.17
2023-05-09T04:51:34.589Z,99495.88
2023-05-09T04:54:01.502Z,99491.15
2023-05-09T04:56:31.193Z,99482.83
2023-05-09T04:59:15.935Z,99480.27
2023-05-09T05:01:43.580Z,99476.17
2023-05-09T05:04:10.787Z,99473.55
2023-05-09T05:06:37.889Z,99465.81
2023-05-09T05:09:05.167Z,99473.60
2023-05-09T05:11:31.950Z,99472.54
2023-05-09T05:13:59.072Z,99474.94
2023-05-09T05:16:26.708Z,99475.66
2023-05-09T05:18:53.515Z,99480.19
2023-05-09T05:21:20.502Z,99478.33
2023-05-09T05:23:47.375Z,99478.35
2023-05-09T05:26:14.309Z,99476.87
2023-05-09T05:28:41.355Z,99475.48
2023-05-09T05:31:08.095Z,99472.08
2023-05-09T05:33:34.912Z,99474.86
2023-05-09T05:36:02.212Z,99470.63
2023-05-09T05:38:29.316Z,99474.95
2023-05-09T05:40:56.668Z,99472.38
2023-05-09T05:43:23.875Z,99466.65
2023-05-09T05:45:51.211Z,99462.83
2023-05-09T05:48:19.618Z,99459.34
2023-05-09T05:50:46.755Z,99460.89
2023-05-09T05:53:14.655Z,99452.50
2023-05-09T05:55:41.903Z,99452.91
2023-05-09T05:58:08.703Z,99457.69
2023-05-09T06:00:36.299Z,99455.56
2023-05-09T06:03:03.715Z,99453.16
2023-05-09T06:05:42.625Z,99450.64
2023-05-09T06:08:09.499Z,99444.21
2023-05-09T06:10:36.342Z,99438.80
2023-05-09T06:13:03.126Z,99446.19
2023-05-09T06:15:30.177Z,99441.12
2023-05-09T06:17:57.147Z,99441.83
2023-05-09T06:20:23.916Z,99433.67
2023-05-09T06:22:50.867Z,99429.88
2023-05-09T06:25:19.086Z,99423.04
2023-05-09T06:27:45.960Z,99423.20
2023-05-09T06:30:24.742Z,99420.13
2023-05-09T06:32:52.323Z,99419.77
2023-05-09T06:35:19.197Z,99423.38
2023-05-09T06:37:48.374Z,99418.70
2023-05-09T06:40:15.900Z,99420.45
2023-05-09T06:42:42.673Z,99419.83
2023-05-09T06:45:09.865Z,99420.17
2023-05-09T06:47:36.683Z,99423.40
2023-05-09T06:50:03.831Z,99408.83
2023-05-09T06:52:30.569Z,99408.52
2023-05-09T06:54:57.388Z,99405.38
2023-05-09T06:57:24.279Z,99404.54
2023-05-09T06:59:52.087Z,99406.48
2023-05-09T07:02:18.856Z,99404.09
2023-05-09T07:04:48.192Z,99401.55
2023-05-09T07:07:15.456Z,99409.32
2023-05-09T07:09:42.483Z,99409.08
2023-05-09T07:12:10.041Z,99406.51
2023-05-09T07:14:36.885Z,99402.54
2023-05-09T07:17:18.747Z,99403.23
2023-05-09T07:19:52.044Z,99392.12
2023-05-09T07:22:19.224Z,99402.67
2023-05-09T07:24:46.597Z,99398.36
2023-05-09T07:27:13.749Z,99398.72
2023-05-09T07:29:40.623Z,99398.98
2023-05-09T07:32:07.498Z,99394.09
2023-05-09T07:34:34.621Z,99390.74
2023-05-09T07:37:01.521Z,99385.01
2023-05-09T07:39:28.270Z,99382.94
2023-05-09T07:41:55.240Z,99377.19
2023-05-09T07:44:22.782Z,99384.52
2023-05-09T07:46:49.850Z,99379.25
2023-05-09T07:49:16.694Z,99369.41
2023-05-09T07:51:43.528Z,99370.86
2023-05-09T07:54:10.392Z,99371.37
2023-05-09T07:56:37.301Z,99372.34
2023-05-09T07:59:05.563Z,99368.05
2023-05-09T08:01:32.449Z,99366.75
2023-05-09T08:03:59.438Z,99366.41
2023-05-09T08:06:26.636Z,99351.02
2023-05-09T08:08:53.451Z,99345.71
2023-05-09T08:11:20.261Z,99346.85
2023-05-09T08:13:48.308Z,99349.38
2023-05-09T08:16:17.440Z,99351.52
2023-05-09T08:18:44.752Z,99347.73
2023-05-09T08:21:11.537Z,99342.97
2023-05-09T08:23:38.955Z,99345.38
2023-05-09T08:26:05.963Z,99340.52
2023-05-09T08:28:32.783Z,99331.69
2023-05-09T08:30:59.760Z,99341.74
2023-05-09T08:33:26.644Z,99340.95
2023-05-09T08:35:53.963Z,99332.02
2023-05-09T08:38:24.499Z,99332.14
2023-05-09T08:40:51.325Z,99338.84
2023-05-09T08:43:20.310Z,99330.98
2023-05-09T08:45:52.131Z,99333.54
2023-05-09T08:48:19.631Z,99333.17
2023-05-09T08:50:47.314Z,99340.33
2023-05-09T08:53:14.909Z,99338.02
2023-05-09T08:55:41.847Z,99333.30
2023-05-09T08:58:09.779Z,99332.14
2023-05-09T09:00:38.799Z,99330.06
2023-05-09T09:03:06.917Z,99325.42
2023-05-09T09:05:41.883Z,99325.46
2023-05-09T09:08:10.992Z,99327.40
2023-05-09T09:10:47.706Z,99324.95
2023-05-09T09:13:16.894Z,99322.21
2023-05-09T09:15:46.450Z,99327.31
2023-05-09T09:18:20.954Z,99315.81
2023-05-09T09:20:52.205Z,99316.42
2023-05-09T09:23:21.329Z,99307.73
2023-05-09T09:25:48.891Z,99318.29
2023-05-09T09:28:15.790Z,99318.60
2023-05-09T09:30:46.043Z,99308.85
2023-05-09T09:33:22.668Z,99311.61
2023-05-09T09:35:51.118Z,99312.25
2023-05-09T09:38:19.723Z,99312.38
2023-05-09T09:40:58.596Z,99307.29
2023-05-09T09:43:30.494Z,99308.36
2023-05-09T09:46:01.196Z,99292.91
2023-05-09T09:48:33.793Z,99298.55
2023-05-09T09:51:11.988Z,99295.03
2023-05-09T09:53:39.703Z,99292.39
2023-05-09T09:56:07.039Z,99294.94
2023-05-09T09:58:34.270Z,99293.65
2023-05-09T10:01:06.417Z,99286.73
2023-05-09T10:03:38.297Z,99291.50
2023-05-09T10:06:05.800Z,99271.42
2023-05-09T10:08:32.797Z,99277.46
2023-05-09T10:10:59.997Z,99273.38
2023-05-09T10:13:27.492Z,99271.80
2023-05-09T10:15:55.893Z,99279.81
2023-05-09T10:18:28.875Z,99271.73
2023-05-09T10:21:01.131Z,99272.26
2023-05-09T10:23:30.917Z,99263.21
2023-05-09T10:26:05.095Z,99255.95
2023-05-09T10:28:35.258Z,99259.90
2023-05-09T10:31:33.107Z,99251.06
2023-05-09T10:34:05.062Z,99249.23
2023-05-09T10:36:32.705Z,99239.45
2023-05-09T10:39:00.164Z,99249.52
2023-05-09T10:41:27.069Z,99248.05
2023-05-09T10:43:57.313Z,99257.45
2023-05-09T10:46:25.226Z,99257.67
2023-05-09T10:48:52.631Z,99246.73
2023-05-09T10:51:19.698Z,99239.42
2023-05-09T10:53:48.753Z,99231.27
2023-05-09T10:56:25.169Z,99240.83
2023-05-09T10:58:51.926Z,99240.98
2023-05-09T11:01:37.226Z,99224.91
2023-05-09T11:04:14.744Z,99229.02
2023-05-09T11:06:43.981Z,99228.55
2023-05-09T11:09:32.922Z,99230.32
2023-05-09T11:12:02.343Z,99232.20
2023-05-09T11:14:31.117Z,99222.98
2023-05-09T11:16:59.804Z,99209.30
2023-05-09T11:19:45.648Z,99213.18
2023-05-09T11:22:15.778Z,99211.20
2023-05-09T11:24:51.850Z,99199.55
2023-05-09T11:27:28.415Z,99188.77
2023-05-09T11:29:58.099Z,99191.47
2023-05-09T11:32:31.852Z,99181.75
2023-05-09T11:35:10.004Z,99184.54
2023-05-09T11:37:52.596Z,99180.42
2023-05-09T11:40:24.315Z,99170.55
2023-05-09T11:42:57.758Z,99175.56
2023-05-09T11:45:29.974Z,99171.17
2023-05-09T11:47:57.693Z,99168.04
2023-05-09T11:50:25.231Z,99166.13
2023-05-09T11:52:54.167Z,99161.40
2023-05-09T11:55:23.031Z,99159.66
2023-05-09T11:57:52.419Z,99160.47
2023-05-09T12:00:22.025Z,99160.48
2023-05-09T12:02:51.115Z,99160.89
2023-05-09T12:05:20.863Z,99153.70
2023-05-09T12:07:48.035Z,99160.48
2023-05-09T12:10:21.233Z,99152.02
2023-05-09T12:12:50.190Z,99140.71
2023-05-09T12:15:19.701Z,99136.58
2023-05-09T12:17:50.482Z,99133.11
2023-05-09T12:20:18.906Z,99130.82
2023-05-09T12:22:53.756Z,99129.17
2023-05-09T12:25:20.593Z,99125.73
2023-05-09T12:27:47.476Z,99127.88
2023-05-09T12:30:16.280Z,99118.77
2023-05-09T12:32:43.932Z,99120.73
2023-05-09T12:35:11.500Z,99109.94
2023-05-09T12:37:39.026Z,99115.39
2023-05-09T12:40:11.397Z,99107.57
2023-05-09T12:42:39.092Z,99103.56
2023-05-09T12:45:08.912Z,99110.09
2023-05-09T12:47:37.330Z,99106.41
2023-05-09T12:50:06.497Z,99108.88
2023-05-09T12:52:36.777Z,99103.60
2023-05-09T12:55:09.096Z,99102.04
2023-05-09T12:57:36.140Z,99097.16
2023-05-09T13:00:07.653Z,99097.17
2023-05-09T13:02:37.056Z,99090.38
2023-05-09T13:05:12.195Z,99097.19
2023-05-09T13:07:41.117Z,99096.00
2023-05-09T13:10:14.664Z,99090.66
2023-05-09T13:12:45.401Z,99076.39
2023-05-09T13:15:12.722Z,99079.45
2023-05-09T13:17:39.846Z,99081.49
2023-05-09T13:20:07.499Z,99074.22
2023-05-09T13:22:35.809Z,99070.95
2023-05-09T13:25:03.412Z,99065.45
2023-05-09T13:27:30.581Z,99059.48
2023-05-09T13:29:57.634Z,99048.23
2023-05-09T13:32:25.072Z,99053.85
2023-05-09T13:34:52.901Z,99032.98
2023-05-09T13:37:19.873Z,99042.85
2023-05-09T13:39:46.703Z,99052.66
2023-05-09T13:42:13.596Z,99056.97
2023-05-09T13:44:40.402Z,99055.84
2023-05-09T13:47:07.965Z,99049.83
2023-05-09T13:49:35.061Z,99045.71
2023-05-09T13:52:01.839Z,99042.00
2023-05-09T13:54:31.372Z,99039.35
2023-05-09T13:56:58.278Z,99039.64
2023-05-09T13:59:25.017Z,99040.24
2023-05-09T14:01:52.111Z,99032.71
2023-05-09T14:04:19.158Z,99030.58
2023-05-09T14:06:48.311Z,99030.83
2023-05-09T14:09:15.766Z,99024.27
2023-05-09T14:11:42.882Z,99027.29
2023-05-09T14:14:09.628Z,99030.08
2023-05-09T14:16:36.465Z,99019.71
2023-05-09T14:19:03.293Z,99018.48
2023-05-09T14:21:30.067Z,99013.80
2023-05-09T14:23:57.513Z,99016.02
2023-05-09T14:26:26.590Z,99010.14
2023-05-09T14:28:54.310Z,99008.27
2023-05-09T14:31:21.271Z,99002.58
2023-05-09T14:33:48.109Z,99000.54
2023-05-09T14:36:14.989Z,98996.51
2023-05-09T14:38:43.073Z,98999.60
2023-05-09T14:41:09.958Z,99002.16
2023-05-09T14:43:36.983Z,98993.77
2023-05-09T14:46:03.977Z,98999.59
2023-05-09T14:48:30.868Z,98994.14
2023-05-09T14:50:57.749Z,98989.48
2023-05-09T14:53:24.689Z,98988.85
2023-05-09T14:55:52.277Z,98993.91
2023-05-09T14:58:19.510Z,98984.43
2023-05-09T15:00:47.458Z,98982.64
2023-05-09T15:03:14.652Z,98979.89
2023-05-09T15:05:42.228Z,98979.98
2023-05-09T15:08:09.085Z,98985.66
2023-05-09T15:10:36.084Z,98976.50
2023-05-09T15:13:05.796Z,98970.68
2023-05-09T15:15:32.931Z,98966.05
2023-05-09T15:18:01.035Z,98968.55
2023-05-09T15:20:27.819Z,98967.45
2023-05-09T15:22:54.641Z,98962.20
2023-05-09T15:25:23.278Z,98959.95
2023-05-09T15:27:51.130Z,98954.52
2023-05-09T15:30:20.251Z,98940.84
2023-05-09T15:32:47.212Z,98939.00
2023-05-09T15:35:14.230Z,98937.20
2023-05-09T15:37:41.163Z,98934.56
2023-05-09T15:40:08.534Z,98933.61
2023-05-09T15:42:35.936Z,98927.17
2023-05-09T15:45:03.840Z,98928.96
2023-05-09T15:47:31.076Z,98927.20
2023-05-09T15:49:57.882Z,98927.45
2023-05-09T15:52:24.720Z,98925.02
2023-05-09T15:54:51.447Z,98921.84
2023-05-09T15:57:18.210Z,98917.55
2023-05-09T15:59:44.978Z,98917.34
2023-05-09T16:04:39.011Z,98912.20
2023-05-09T16:07:05.840Z,98909.74
2023-05-09T16:09:32.985Z,98905.13
2023-05-09T16:11:59.727Z,98908.55
2023-05-09T16:14:26.618Z,98907.38
2023-05-09T16:16:54.028Z,98903.04
2023-05-09T16:19:21.873Z,98905.84
2023-05-09T16:21:48.788Z,98904.09
2023-05-09T16:24:15.559Z,98900.38
2023-05-09T16:26:42.378Z,98898.94
2023-05-09T16:29:10.013Z,98898.87
2023-05-09T16:31:37.083Z,98902.05
2023-05-09T16:34:04.033Z,98894.24
2023-05-09T16:36:33.748Z,98890.10
2023-05-09T16:39:02.789Z,98889.08
2023-05-09T16:41:29.687Z,98886.05
2023-05-09T16:43:57.498Z,98881.55
2023-05-09T16:46:24.874Z,98888.10
2023-05-09T16:48:52.705Z,98887.03
2023-05-09T16:51:19.477Z,98882.61
2023-05-09T16:53:46.349Z,98877.44
2023-05-09T16:56:13.317Z,98877.98
2023-05-09T16:58:40.156Z,98880.80
2023-05-09T17:01:07.105Z,98879.77
2023-05-09T17:03:34.318Z,98881.30
2023-05-09T17:06:01.207Z,98876.34
2023-05-09T17:08:27.962Z,98870.09
2023-05-09T17:10:55.118Z,98869.30
2023-05-09T17:13:22.100Z,98869.30
2023-05-09T17:15:49.402Z,98870.00
2023-05-09T17:18:22.177Z,98865.07
2023-05-09T17:20:56.831Z,98865.60
2023-05-09T17:23:24.484Z,98861.79
2023-05-09T17:25:51.915Z,98860.98
2023-05-09T17:28:18.625Z,98862.64
2023-05-09T17:30:45.578Z,98863.61
2023-05-09T17:33:12.354Z,98862.13
2023-05-09T17:35:46.993Z,98858.34
2023-05-09T17:38:14.165Z,98859.69
2023-05-09T17:40:40.999Z,98857.23
2023-05-09T17:43:07.726Z,98855.56
2023-05-09T17:45:34.552Z,98861.34
2023-05-09T17:48:02.339Z,98858.49
2023-05-09T17:50:29.317Z,98857.88
2023-05-09T17:52:57.069Z,98855.80
2023-05-09T17:55:23.861Z,98858.85
2023-05-09T17:57:50.767Z,98859.02
2023-05-09T18:00:18.478Z,98862.42
2023-05-09T18:02:48.278Z,98862.30
2023-05-09T18:05:16.392Z,98861.96
2023-05-09T18:07:43.214Z,98856.22
2023-05-09T18:10:13.701Z,98857.95
2023-05-09T18:12:41.002Z,98857.80
2023-05-09T18:15:09.401Z,98856.91
2023-05-09T18:17:36.910Z,98857.52
2023-05-09T18:20:08.415Z,98857.80
2023-05-09T18:22:38.646Z,98853.03
2023-05-09T18:25:07.738Z,98856.84
2023-05-09T18:27:35.257Z,98855.35
2023-05-09T18:30:02.143Z,98857.08
2023-05-09T18:32:29.987Z,98859.20
2023-05-09T18:35:12.577Z,98859.06
2023-05-09T18:37:39.957Z,98858.95
2023-05-09T18:40:10.971Z,98863.21
2023-05-09T18:42:39.380Z,98858.72
2023-05-09T18:45:12.327Z,98864.38
2023-05-09T18:47:39.647Z,98859.30
2023-05-09T18:50:07.413Z,98866.73
2023-05-09T18:52:35.583Z,98869.68
2023-05-09T18:55:04.128Z,98875.45
2023-05-09T18:57:31.089Z,98874.48
2023-05-09T18:59:58.219Z,98872.52
2023-05-09T19:02:26.555Z,98877.20
2023-05-09T19:04:53.782Z,98878.33
2023-05-09T19:07:23.926Z,98876.84
2023-05-09T19:09:50.694Z,98875.92
2023-05-09T19:12:17.794Z,98873.83
2023-05-09T19:14:44.587Z,98871.42
2023-05-09T19:17:12.059Z,98868.83
2023-05-09T19:19:39.455Z,98868.27
2023-05-09T19:22:07.490Z,98868.76
2023-05-09T19:24:38.789Z,98864.91
2023-05-09T19:27:07.696Z,98863.17
2023-05-09T19:29:35.980Z,98863.42
2023-05-09T19:32:04.123Z,98863.23
2023-05-09T19:34:31.026Z,98857.46
2023-05-09T19:36:57.800Z,98859.70
2023-05-09T19:39:25.680Z,98864.67
2023-05-09T19:41:52.517Z,98861.62
2023-05-09T19:44:19.288Z,98855.41
2023-05-09T19:46:46.249Z,98854.75
2023-05-09T19:52:04.156Z,98854.29
2023-05-09T19:54:31.181Z,98855.96
2023-05-09T19:56:58.107Z,98857.19
2023-05-09T19:59:24.910Z,98855.52
2023-05-09T20:01:51.909Z,98855.04
2023-05-09T20:04:21.830Z,98856.28
2023-05-09T20:06:48.766Z,98858.77
2023-05-09T20:09:18.001Z,98856.91
2023-05-09T20:11:44.740Z,98860.39
2023-05-09T20:14:11.572Z,98858.17
2023-05-09T20:16:38.432Z,98856.25
2023-05-09T20:19:08.004Z,98852.20
2023-05-09T20:21:35.527Z,98853.05
2023-05-09T20:24:03.494Z,98849.08
2023-05-09T20:26:31.788Z,98851.75
2023-05-09T20:29:01.659Z,98851.26
2023-05-09T20:31:29.366Z,98850.02
2023-05-09T20:33:57.974Z,98850.21
2023-05-09T20:36:26.274Z,98850.48
2023-05-09T20:38:53.150Z,98848.84
2023-05-09T20:41:22.006Z,98844.41
2023-05-09T20:43:50.187Z,98845.67
2023-05-09T20:46:17.576Z,98845.62
2023-05-09T20:48:44.479Z,98843.45
2023-05-09T20:51:11.222Z,98839.48
2023-05-09T20:53:38.004Z,98840.80
2023-05-09T20:56:05.088Z,98838.69
2023-05-09T20:58:33.997Z,98839.77
2023-05-09T21:01:00.952Z,98837.55
2023-05-09T21:03:27.969Z,98837.66
2023-05-09T21:05:54.912Z,98839.12
2023-05-09T21:08:23.330Z,98836.72
2023-05-09T21:10:52.564Z,98839.38
2023-05-09T21:13:19.571Z,98832.28
2023-05-09T21:15:49.124Z,98825.64
2023-05-09T21:18:15.960Z,98828.33
2023-05-09T21:20:42.815Z,98827.77
2023-05-09T21:23:09.652Z,98825.89
2023-05-09T21:25:36.470Z,98822.21
2023-05-09T21:28:03.390Z,98820.48
2023-05-09T21:30:30.349Z,98819.20
2023-05-09T21:32:57.118Z,98822.42
2023-05-09T21:35:23.992Z,98824.36
2023-05-09T21:37:52.718Z,98826.77
2023-05-09T21:40:19.854Z,98816.57
2023-05-09T21:42:47.882Z,98829.23
2023-05-09T21:45:14.920Z,98828.77
2023-05-09T21:47:41.821Z,98827.66
2023-05-09T21:50:09.338Z,98829.48
2023-05-09T21:52:36.165Z,98826.95
2023-05-09T21:55:02.957Z,98825.88
2023-05-09T21:57:29.842Z,98828.65
2023-05-09T22:00:01.179Z,98821.33
2023-05-09T22:02:29.876Z,98826.34
2023-05-09T22:04:56.747Z,98827.25
2023-05-09T22:07:23.596Z,98827.38
2023-05-09T22:09:50.566Z,98822.10
2023-05-09T22:12:17.386Z,98822.93
2023-05-09T22:14:55.383Z,98820.28
2023-05-09T22:17:24.325Z,98818.78
2023-05-09T22:19:51.441Z,98816.63
2023-05-09T22:22:18.235Z,98820.92
2023-05-09T22:24:45.021Z,98821.80
2023-05-09T22:27:11.926Z,98818.51
2023-05-09T22:29:38.736Z,98816.27
2023-05-09T22:32:07.801Z,98816.99
2023-05-09T22:34:35.532Z,98818.96
2023-05-09T22:37:02.339Z,98812.75
2023-05-09T22:39:29.839Z,98813.59
2023-05-09T22:41:56.821Z,98811.23
2023-05-09T22:44:23.567Z,98806.48
2023-05-09T22:46:50.418Z,98803.33
2023-05-09T22:49:18.310Z,98798.30
2023-05-09T22:51:45.180Z,98803.23
2023-05-09T22:54:12.201Z,98808.66
2023-05-09T22:56:39.006Z,98809.10
2023-05-09T22:59:05.872Z,98807.20
2023-05-09T23:01:32.740Z,98806.80
2023-05-09T23:03:59.621Z,98808.33
2023-05-09T23:06:26.351Z,98807.45
2023-05-09T23:08:53.058Z,98799.51
2023-05-09T23:11:21.041Z,98799.20
2023-05-09T23:13:48.032Z,98797.33
2023-05-09T23:16:16.246Z,98800.26
2023-05-09T23:18:43.300Z,98796.07
2023-05-09T23:21:10.034Z,98799.02
2023-05-09T23:23:37.137Z,98799.17
2023-05-09T23:26:03.938Z,98799.45
2023-05-09T23:28:30.679Z,98795.67
2023-05-09T23:30:57.415Z,98795.71
2023-05-09T23:33:24.334Z,98794.77
2023-05-09T23:35:51.203Z,98793.52
2023-05-09T23:38:17.960Z,98788.05
2023-05-09T23:40:46.148Z,98790.27
2023-05-09T23:43:13.682Z,98790.66
2023-05-09T23:45:40.559Z,98784.11
2023-05-09T23:48:07.979Z,98786.29
2023-05-09T23:50:34.776Z,98784.39
2023-05-09T23:53:01.928Z,98780.78
2023-05-09T23:55:29.197Z,98781.05
2023-05-09T23:57:56.056Z,98781.27
